Time;durP1;ratioP1;P1;durP2;ratioP2;P2;SDS_P1;SDS_P2;PMS_P1;PMS_P2;Temp;Humidity;BMP_temperature;BMP_pressure;BME280_temperature;BME280_humidity;BME280_pressure;Samples;Min_cycle;Max_cycle;Signal;HPM_P1;HPM_P2
2022/06/20 00:02:59;;;;;;;9.73;4.88;;;;;;;24.66;40.48;95567.03;10369741;28;97419;-72
2022/06/20 00:08:01;;;;;;;8.52;4.10;;;;;;;24.60;40.85;95573.41;10367341;28;96816;-71
2022/06/20 00:13:21;;;;;;;8.43;3.85;;;;;;;24.59;40.28;95569.09;10361304;28;96788;-71
2022/06/20 00:18:25;;;;;;;6.97;3.78;;;;;;;24.52;40.61;95571.97;10361517;28;96716;-71
2022/06/20 00:23:28;;;;;;;6.55;4.13;;;;;;;24.45;41.11;95560.69;10356884;28;96733;-71
2022/06/20 00:28:31;;;;;;;8.32;4.07;;;;;;;24.35;41.04;95576.59;10344639;28;97649;-72
2022/06/20 00:33:35;;;;;;;6.35;3.13;;;;;;;24.25;41.13;95588.00;10357177;28;97938;-71
2022/06/20 00:38:39;;;;;;;5.45;3.75;;;;;;;24.07;41.02;95586.44;10356173;28;97044;-72
2022/06/20 00:43:45;;;;;;;7.72;3.83;;;;;;;23.92;41.71;95587.03;10359395;28;98059;-72
2022/06/20 00:48:55;;;;;;;6.65;3.53;;;;;;;23.82;41.97;95598.38;10360610;28;96855;-72
2022/06/20 00:54:05;;;;;;;7.38;3.47;;;;;;;23.72;41.92;95607.06;10364266;28;97264;-71
2022/06/20 00:59:12;;;;;;;10.23;3.63;;;;;;;23.65;41.80;95617.09;10364791;28;97192;-71
2022/06/20 01:04:36;;;;;;;5.90;3.78;;;;;;;23.55;42.10;95622.28;10362983;28;98188;-71
2022/06/20 01:09:46;;;;;;;6.37;3.67;;;;;;;23.44;42.39;95621.31;10358473;28;96962;-72
2022/06/20 01:14:48;;;;;;;6.57;3.60;;;;;;;23.33;42.86;95620.38;10365842;28;98943;-72
2022/06/20 01:19:59;;;;;;;4.85;3.25;;;;;;;23.25;42.99;95618.06;10357589;28;98660;-71
2022/06/20 01:25:21;;;;;;;6.03;3.20;;;;;;;23.15;42.72;95631.22;10359319;28;98216;-72
2022/06/20 01:30:28;;;;;;;8.88;3.33;;;;;;;23.06;42.72;95624.69;10365617;28;98899;-71
2022/06/20 01:46:17;;;;;;;9.65;3.15;;;;;;;22.82;43.08;95635.47;10367607;28;97064;-72
2022/06/20 01:51:25;;;;;;;5.93;3.08;;;;;;;22.69;43.40;95627.81;10368726;28;96845;-72
2022/06/20 01:56:29;;;;;;;7.47;3.00;;;;;;;22.51;43.90;95632.28;10369559;28;99053;-72
2022/06/20 02:01:37;;;;;;;4.87;3.33;;;;;;;22.39;44.36;95639.47;10372835;28;99108;-71
2022/06/20 02:06:41;;;;;;;6.20;3.40;;;;;;;22.34;44.28;95639.38;10348927;28;97920;-71
2022/06/20 02:11:45;;;;;;;9.27;4.03;;;;;;;22.26;44.40;95637.88;10355807;28;97008;-71
2022/06/20 02:16:54;;;;;;;7.50;2.90;;;;;;;22.21;43.98;95641.25;10360122;28;97770;-71
2022/06/20 02:22:00;;;;;;;7.88;3.50;;;;;;;22.24;44.00;95640.78;10353729;28;97115;-72
2022/06/20 02:27:06;;;;;;;6.72;2.80;;;;;;;22.18;43.93;95631.09;10369768;28;97240;-71
2022/06/20 02:32:12;;;;;;;7.57;3.13;;;;;;;22.05;44.45;95634.81;10363569;28;98896;-71
2022/06/20 02:37:23;;;;;;;8.82;3.08;;;;;;;21.88;44.46;95637.41;10356545;28;99024;-72
2022/06/20 02:42:30;;;;;;;10.02;3.45;;;;;;;21.80;45.23;95624.47;10370604;28;97070;-71
2022/06/20 02:47:40;;;;;;;6.95;3.03;;;;;;;21.61;45.58;95625.63;10370604;28;98686;-71
2022/06/20 02:52:47;;;;;;;5.57;3.17;;;;;;;21.49;45.60;95629.06;10361645;28;98473;-72
2022/06/20 02:58:01;;;;;;;5.90;3.30;;;;;;;21.41;45.96;95642.69;10368288;28;96919;-72
2022/06/20 03:03:11;;;;;;;5.17;3.43;;;;;;;21.36;45.44;95644.44;10371001;28;98072;-72
2022/06/20 03:08:16;;;;;;;5.95;3.15;;;;;;;21.37;45.68;95630.91;10369137;28;98683;-72
2022/06/20 03:13:20;;;;;;;7.78;3.20;;;;;;;21.08;46.82;95644.03;10371149;28;98626;-71
2022/06/20 03:18:25;;;;;;;8.40;3.20;;;;;;;21.10;45.42;95626.06;10374755;28;97187;-72
2022/06/20 03:23:31;;;;;;;8.35;2.92;;;;;;;21.24;45.21;95633.78;10362861;28;97615;-72
2022/06/20 03:28:34;;;;;;;7.40;2.75;;;;;;;21.24;45.53;95641.75;10371938;28;97385;-72
2022/06/20 03:33:40;;;;;;;8.40;3.10;;;;;;;20.90;46.70;95647.59;10364086;28;96855;-72
2022/06/20 03:38:45;;;;;;;5.35;2.80;;;;;;;20.89;45.83;95645.16;10368435;28;97285;-72
2022/06/20 03:43:53;;;;;;;4.93;2.80;;;;;;;20.96;46.20;95653.03;10372681;28;96851;-72
2022/06/20 03:49:04;;;;;;;5.60;2.97;;;;;;;21.00;46.14;95662.16;10370179;28;97516;-72
2022/06/20 03:54:11;;;;;;;7.13;2.92;;;;;;;21.01;45.11;95653.97;10358827;28;97693;-72
2022/06/20 03:59:25;;;;;;;6.53;2.60;;;;;;;21.20;44.33;95654.69;10372245;28;98690;-72
2022/06/20 04:04:33;;;;;;;5.70;2.63;;;;;;;21.31;44.66;95653.06;10346185;28;97011;-72
2022/06/20 04:15:07;;;;;;;7.60;3.25;;;;;;;21.49;43.72;95663.59;10367637;28;97907;-72
2022/06/20 04:20:22;;;;;;;7.40;2.92;;;;;;;21.51;43.71;95660.72;10353487;28;97016;-72
2022/06/20 04:25:34;;;;;;;8.98;2.88;;;;;;;21.46;44.42;95665.91;10367470;28;96814;-72
2022/06/20 04:30:41;;;;;;;7.78;2.90;;;;;;;21.19;45.79;95670.84;10350327;28;97010;-72
2022/06/20 04:35:52;;;;;;;10.27;2.88;;;;;;;21.20;45.01;95670.63;10367407;28;97311;-72
2022/06/20 04:41:01;;;;;;;4.82;2.35;;;;;;;21.35;44.47;95667.53;10360267;28;97003;-72
2022/06/20 04:46:12;;;;;;;7.03;3.05;;;;;;;21.48;44.28;95677.97;10357080;28;97140;-72
2022/06/20 04:51:20;;;;;;;7.90;3.33;;;;;;;21.48;45.86;95679.78;10365966;28;97906;-72
2022/06/20 04:56:26;;;;;;;8.43;2.80;;;;;;;21.29;46.07;95679.06;10365916;28;97716;-72
2022/06/20 05:01:33;;;;;;;9.57;3.45;;;;;;;21.05;47.27;95679.03;10371868;28;96971;-72
2022/06/20 05:06:41;;;;;;;5.30;2.80;;;;;;;21.02;47.31;95686.66;10363514;28;96919;-72
2022/06/20 05:11:48;;;;;;;7.55;2.95;;;;;;;20.95;48.69;95702.69;10363194;28;97814;-72
2022/06/20 05:16:54;;;;;;;9.48;2.70;;;;;;;20.97;48.46;95699.81;10381276;28;98409;-72
2022/06/20 05:22:01;;;;;;;8.00;3.00;;;;;;;21.10;48.12;95699.59;10364513;28;97030;-71
2022/06/20 05:27:10;;;;;;;7.03;2.60;;;;;;;21.27;48.01;95708.50;10353802;28;96737;-71
2022/06/20 05:32:16;;;;;;;4.72;2.83;;;;;;;21.55;46.57;95707.06;10367900;28;100831;-71
2022/06/20 05:37:30;;;;;;;5.32;3.05;;;;;;;21.70;46.87;95709.31;10378174;28;96912;-71
2022/06/20 05:42:33;;;;;;;8.15;2.83;;;;;;;21.81;45.56;95720.97;10365641;28;98169;-71
2022/06/20 05:47:38;;;;;;;5.60;2.50;;;;;;;21.93;46.39;95718.31;10371447;28;97470;-72
2022/06/20 05:52:45;;;;;;;7.18;2.80;;;;;;;22.07;46.40;95725.00;10377902;28;96790;-72
2022/06/20 05:57:49;;;;;;;9.02;2.80;;;;;;;22.16;46.50;95730.78;10371651;28;96831;-71
2022/06/20 06:02:57;;;;;;;10.45;2.78;;;;;;;22.24;46.32;95741.88;10367477;28;98397;-72
2022/06/20 06:08:11;;;;;;;10.57;3.60;;;;;;;22.40;46.08;95745.69;10369975;28;98609;-71
2022/06/20 06:13:42;;;;;;;8.52;3.05;;;;;;;22.52;45.19;95753.66;10364042;28;96911;-71
2022/06/20 06:18:53;;;;;;;9.82;2.83;;;;;;;22.70;44.42;95765.19;10377021;28;97097;-72
2022/06/20 06:24:00;;;;;;;10.15;3.03;;;;;;;22.86;43.69;95761.00;10375873;28;96980;-72
2022/06/20 06:29:06;;;;;;;7.47;2.65;;;;;;;23.02;44.58;95770.88;10378962;28;96757;-71
2022/06/20 06:34:19;;;;;;;7.28;2.92;;;;;;;23.24;43.65;95779.03;10370996;28;98918;-72
2022/06/20 06:39:33;;;;;;;6.82;2.67;;;;;;;23.41;43.76;95789.75;10372513;28;98088;-72
2022/06/20 06:44:41;;;;;;;5.47;2.50;;;;;;;23.50;42.85;95784.84;10361464;28;97768;-72
2022/06/20 06:49:48;;;;;;;5.85;2.55;;;;;;;23.63;42.27;95779.19;10353629;28;96753;-72
2022/06/20 06:54:58;;;;;;;7.15;2.50;;;;;;;23.70;40.95;95781.69;10369123;28;98633;-72
2022/06/20 07:00:22;;;;;;;4.28;2.17;;;;;;;23.80;41.22;95773.06;10367415;28;98314;-71
2022/06/20 07:05:31;;;;;;;6.38;2.50;;;;;;;23.98;40.70;95791.47;10366323;28;96832;-71
2022/06/20 07:10:40;;;;;;;7.15;2.70;;;;;;;24.16;40.50;95792.28;10363803;28;96895;-70
2022/06/20 07:15:45;;;;;;;6.95;2.90;;;;;;;24.27;40.27;95794.06;10359501;28;96788;-71
2022/06/20 07:20:50;;;;;;;7.53;2.78;;;;;;;24.39;40.33;95796.63;10362809;28;96778;-70
2022/06/20 07:25:55;;;;;;;4.15;2.08;;;;;;;24.46;39.11;95800.72;10366072;28;96859;-71
2022/06/20 07:31:04;;;;;;;4.60;2.42;;;;;;;24.54;38.30;95798.69;10367079;28;96944;-70
2022/06/20 07:36:10;;;;;;;5.97;2.35;;;;;;;24.72;38.35;95800.28;10361803;28;97957;-70
2022/06/20 07:41:20;;;;;;;4.10;2.33;;;;;;;24.88;37.90;95789.53;10368311;28;96851;-70
2022/06/20 07:46:28;;;;;;;4.60;2.45;;;;;;;24.99;37.69;95800.34;10351412;28;97050;-71
2022/06/20 07:51:35;;;;;;;5.35;2.33;;;;;;;25.14;37.29;95805.06;10360901;28;96787;-71
2022/06/20 07:56:45;;;;;;;5.30;2.35;;;;;;;25.25;37.17;95794.22;10368174;28;96980;-71
2022/06/20 08:01:53;;;;;;;4.05;2.70;;;;;;;25.33;36.74;95794.84;10352163;28;96829;-71
2022/06/20 08:07:00;;;;;;;5.35;2.38;;;;;;;25.42;36.92;95794.13;10358003;28;96860;-71
2022/06/20 08:12:09;;;;;;;5.30;2.47;;;;;;;25.57;36.81;95795.38;10355977;28;96943;-71
2022/06/20 08:17:13;;;;;;;6.28;2.60;;;;;;;25.69;36.33;95803.22;10356955;28;96923;-71
2022/06/20 08:22:20;;;;;;;4.20;2.40;;;;;;;25.76;36.46;95795.81;10352349;27;98697;-71
2022/06/20 08:27:33;;;;;;;4.55;2.47;;;;;;;25.95;35.78;95791.66;10375172;28;96899;-70
2022/06/20 08:32:48;;;;;;;5.43;2.22;;;;;;;26.09;35.95;95793.91;10360797;28;98027;-71
2022/06/20 08:37:57;;;;;;;4.93;2.10;;;;;;;26.10;35.30;95782.97;10351217;28;96782;-70
2022/06/20 08:43:48;;;;;;;5.75;2.30;;;;;;;26.15;35.57;95788.34;10367301;28;98788;-71
2022/06/20 08:49:25;;;;;;;4.78;2.63;;;;;;;26.34;35.20;95794.09;10187803;28;97006;-70
2022/06/20 08:54:55;;;;;;;6.70;2.75;;;;;;;26.41;34.84;95796.53;10182881;28;96913;-71
2022/06/20 09:00:11;;;;;;;4.90;2.10;;;;;;;26.51;34.93;95785.09;10094954;28;97079;-73
2022/06/20 09:05:54;;;;;;;5.85;2.72;;;;;;;26.57;34.69;95797.44;10096160;28;97246;-70
2022/06/20 09:11:22;;;;;;;4.75;2.50;;;;;;;26.79;34.90;95788.44;10094271;28;97249;-70
2022/06/20 09:16:35;;;;;;;6.03;2.75;;;;;;;26.93;34.59;95794.91;10095245;28;97583;-71
2022/06/20 09:21:54;;;;;;;4.57;2.53;;;;;;;27.11;34.04;95797.16;10120829;28;97030;-71
2022/06/20 09:27:08;;;;;;;5.70;2.63;;;;;;;27.19;34.12;95789.66;10211050;28;98014;-71
2022/06/20 09:32:58;;;;;;;5.07;2.70;;;;;;;27.31;34.00;95784.88;10214288;28;97029;-71
2022/06/20 09:38:24;;;;;;;3.83;3.13;;;;;;;27.41;33.55;95790.25;10350006;28;96898;-71
2022/06/20 09:43:40;;;;;;;5.28;2.40;;;;;;;27.54;32.92;95783.56;10369980;28;97214;-71
2022/06/20 09:48:51;;;;;;;3.63;2.28;;;;;;;27.66;32.61;95783.34;10362712;28;96793;-71
2022/06/20 09:54:05;;;;;;;4.80;2.72;;;;;;;27.72;32.68;95782.28;10365433;28;98492;-71
2022/06/20 09:59:18;;;;;;;4.95;2.72;;;;;;;27.82;32.44;95768.88;10364274;28;96734;-71
2022/06/20 10:04:29;;;;;;;4.53;2.30;;;;;;;28.04;32.28;95770.44;10355933;28;96842;-71
2022/06/20 10:10:04;;;;;;;5.85;2.50;;;;;;;28.08;32.25;95771.50;10366934;28;96879;-70
2022/06/20 10:15:12;;;;;;;3.83;2.20;;;;;;;28.09;31.79;95781.19;10367827;28;97158;-71
2022/06/20 10:20:29;;;;;;;4.65;2.25;;;;;;;28.21;31.25;95773.66;10359747;28;102110;-71
2022/06/20 10:25:58;;;;;;;4.50;2.08;;;;;;;28.29;31.39;95766.13;10366647;28;97042;-71
2022/06/20 10:31:19;;;;;;;4.78;2.08;;;;;;;28.37;31.02;95752.94;10362645;28;96950;-71
2022/06/20 10:36:29;;;;;;;5.68;2.30;;;;;;;28.44;30.92;95752.66;10364575;28;96753;-71
2022/06/20 10:41:46;;;;;;;2.55;2.10;;;;;;;28.57;30.61;95752.09;10378123;28;97099;-71
2022/06/20 10:46:59;;;;;;;7.15;2.55;;;;;;;28.70;30.69;95749.91;10354309;28;96769;-71
2022/06/20 10:52:13;;;;;;;7.97;2.40;;;;;;;28.86;30.32;95731.81;10368283;28;96769;-71
2022/06/20 10:57:31;;;;;;;6.95;2.13;;;;;;;28.91;30.19;95746.06;10373106;28;98196;-71
2022/06/20 11:03:11;;;;;;;4.50;2.20;;;;;;;28.99;30.16;95740.09;10363462;28;99870;-71
2022/06/20 11:08:30;;;;;;;5.72;2.30;;;;;;;29.23;29.57;95728.69;10357390;28;97704;-71
2022/06/20 11:13:42;;;;;;;4.72;2.05;;;;;;;29.25;29.25;95721.13;10351164;28;97017;-71
2022/06/20 11:18:58;;;;;;;3.47;1.93;;;;;;;29.28;29.43;95715.19;10360124;28;96795;-71
2022/06/20 11:24:16;;;;;;;4.63;2.22;;;;;;;29.42;28.99;95711.84;10360803;28;96933;-71
2022/06/20 11:29:50;;;;;;;3.45;2.00;;;;;;;29.50;29.00;95700.50;10368807;28;96994;-71
2022/06/20 11:35:32;;;;;;;5.28;2.00;;;;;;;29.67;28.97;95703.63;10352282;28;97215;-71
2022/06/20 11:40:48;;;;;;;4.53;2.00;;;;;;;29.89;28.38;95700.47;10299311;28;97028;-71
2022/06/20 11:46:05;;;;;;;5.68;2.15;;;;;;;29.91;28.51;95697.50;10303932;28;96968;-71
2022/06/20 11:51:17;;;;;;;2.92;1.67;;;;;;;30.02;28.25;95690.91;10307128;28;96969;-71
2022/06/20 11:56:26;;;;;;;4.10;2.20;;;;;;;30.08;28.26;95686.28;10299897;28;97100;-71
2022/06/20 12:02:02;;;;;;;6.47;2.00;;;;;;;30.19;28.36;95679.72;10301564;28;96880;-71
2022/06/20 12:07:11;;;;;;;5.32;2.10;;;;;;;30.22;28.32;95678.34;10315729;28;97060;-71
2022/06/20 12:12:33;;;;;;;4.55;1.88;;;;;;;30.36;28.03;95665.78;10322987;28;97191;-71
2022/06/20 12:17:43;;;;;;;4.20;2.10;;;;;;;30.34;27.92;95659.88;10360539;28;96876;-71
2022/06/20 12:28:18;;;;;;;5.93;2.30;;;;;;;30.54;27.69;95655.31;10366429;28;96852;-71
2022/06/20 12:33:24;;;;;;;6.45;2.72;;;;;;;30.65;27.59;95646.81;10360567;28;96939;-71
2022/06/20 12:38:34;;;;;;;3.63;2.20;;;;;;;30.74;27.25;95641.56;10357284;28;96819;-71
2022/06/20 12:43:47;;;;;;;4.90;2.30;;;;;;;30.89;27.32;95634.38;10349639;28;96974;-71
2022/06/20 12:49:17;;;;;;;5.32;2.42;;;;;;;31.11;27.09;95631.88;10357154;28;96735;-71
2022/06/20 12:54:35;;;;;;;6.55;2.20;;;;;;;31.25;26.71;95625.75;10364125;28;97852;-71
2022/06/20 13:00:00;;;;;;;3.42;2.22;;;;;;;31.30;27.04;95626.47;10367494;28;99604;-71
2022/06/20 13:05:45;;;;;;;7.00;2.25;;;;;;;31.42;26.97;95618.72;10352991;28;98920;-71
2022/06/20 13:10:59;;;;;;;6.97;2.83;;;;;;;31.73;26.32;95626.28;10360117;28;96881;-71
2022/06/20 13:16:12;;;;;;;5.70;2.42;;;;;;;31.91;26.33;95613.00;10355079;28;96748;-71
2022/06/20 13:21:22;;;;;;;9.70;2.67;;;;;;;32.01;26.30;95610.13;10359445;28;97274;-71
2022/06/20 13:26:33;;;;;;;5.28;2.15;;;;;;;32.05;26.43;95613.03;10371628;28;96809;-72
2022/06/20 13:31:43;;;;;;;6.00;2.67;;;;;;;32.47;25.45;95605.69;10351070;28;98114;-71
2022/06/20 13:36:58;;;;;;;7.13;2.40;;;;;;;32.80;24.59;95602.84;10378369;28;96865;-71
2022/06/20 13:42:11;;;;;;;7.95;2.95;;;;;;;33.20;24.56;95594.88;10379764;28;96965;-71
2022/06/20 13:47:22;;;;;;;6.60;2.10;;;;;;;33.47;24.30;95583.91;10361236;28;96864;-71
2022/06/20 13:52:31;;;;;;;7.18;3.10;;;;;;;33.34;24.21;95583.97;10355351;28;96941;-71
2022/06/20 13:57:38;;;;;;;6.80;2.25;;;;;;;33.41;24.74;95582.44;10376790;28;96961;-71
2022/06/20 14:02:45;;;;;;;6.53;2.22;;;;;;;33.80;24.60;95583.59;10365748;28;98498;-71
2022/06/20 14:08:01;;;;;;;5.88;2.80;;;;;;;34.49;23.34;95578.69;10355017;28;96796;-71
2022/06/20 14:13:16;;;;;;;7.35;2.58;;;;;;;35.31;23.10;95587.06;10369948;28;96971;-71
2022/06/20 14:18:24;;;;;;;5.47;2.92;;;;;;;36.67;21.63;95585.50;10364995;28;97011;-71
2022/06/20 14:23:30;;;;;;;5.47;2.40;;;;;;;37.81;20.78;95577.13;10359082;28;96951;-71
2022/06/20 14:28:37;;;;;;;8.30;2.80;;;;;;;38.84;19.90;95585.00;10368037;28;97007;-71
2022/06/20 14:33:47;;;;;;;5.93;2.97;;;;;;;39.59;19.18;95580.03;10363380;28;96917;-72
2022/06/20 14:38:58;;;;;;;5.85;2.17;;;;;;;40.38;19.20;95581.19;10364858;28;96832;-72
2022/06/20 14:44:09;;;;;;;6.68;2.75;;;;;;;40.97;17.71;95580.13;10367914;28;97034;-72
2022/06/20 14:49:17;;;;;;;5.50;2.37;;;;;;;41.48;17.84;95577.19;10356426;28;97315;-72
2022/06/20 14:54:28;;;;;;;7.32;2.40;;;;;;;42.23;17.24;95571.38;10364964;28;99921;-73
2022/06/20 14:59:37;;;;;;;7.22;2.50;;;;;;;42.89;16.79;95568.41;10370945;28;96842;-72
2022/06/20 15:04:47;;;;;;;7.78;2.28;;;;;;;43.11;16.42;95564.78;10352392;28;98458;-72
2022/06/20 15:09:54;;;;;;;8.25;2.33;;;;;;;42.60;16.33;95570.78;10367764;28;96724;-72
2022/06/20 15:15:02;;;;;;;6.70;2.30;;;;;;;42.12;16.56;95564.97;10379068;28;102086;-72
2022/06/20 15:20:18;;;;;;;7.53;2.25;;;;;;;42.83;16.14;95559.72;10355742;28;97148;-72
2022/06/20 15:25:32;;;;;;;8.93;2.83;;;;;;;42.81;16.18;95570.28;10366314;28;96931;-72
2022/06/20 15:30:39;;;;;;;5.97;2.38;;;;;;;42.66;16.34;95555.56;10361483;28;96884;-72
2022/06/20 15:36:00;;;;;;;6.35;2.55;;;;;;;42.64;15.84;95559.84;10368495;28;96919;-72
2022/06/20 15:41:15;;;;;;;5.57;2.50;;;;;;;43.09;15.71;95556.13;10379916;28;96816;-72
2022/06/20 15:46:24;;;;;;;6.82;2.58;;;;;;;42.93;16.20;95545.31;10363660;28;96937;-72
2022/06/20 15:51:34;;;;;;;4.43;2.15;;;;;;;42.98;16.14;95541.47;10361948;28;96919;-72
2022/06/20 15:56:43;;;;;;;;;;;;;;;43.43;16.38;95536.84;10366287;28;97174;-72
2022/06/20 16:01:58;;;;;;;6.55;2.38;;;;;;;43.89;16.20;95536.47;10356823;28;97011;-72
2022/06/20 16:07:12;;;;;;;6.97;2.70;;;;;;;43.77;15.72;95536.75;10365236;28;96898;-72
2022/06/20 16:12:20;;;;;;;10.35;2.40;;;;;;;43.82;15.47;95535.63;10367699;28;97054;-72
2022/06/20 16:17:27;;;;;;;8.55;3.30;;;;;;;43.71;16.09;95541.03;10369853;28;96768;-72
2022/06/20 16:22:32;;;;;;;6.40;2.30;;;;;;;43.72;15.46;95539.84;10360573;28;96972;-72
2022/06/20 16:27:40;;;;;;;7.07;2.38;;;;;;;44.35;15.18;95531.69;10373967;28;96945;-72
2022/06/20 16:32:53;;;;;;;6.85;2.50;;;;;;;44.70;14.64;95533.03;10374926;28;96826;-72
2022/06/20 16:38:04;;;;;;;7.68;2.50;;;;;;;43.67;15.13;95534.72;10352446;28;97555;-72
2022/06/20 16:43:17;;;;;;;10.05;2.75;;;;;;;44.03;15.19;95540.53;10371531;28;96863;-72
2022/06/20 16:48:35;;;;;;;6.88;2.33;;;;;;;43.69;14.91;95543.38;10361457;28;99934;-73
2022/06/20 16:53:51;;;;;;;6.28;2.50;;;;;;;43.67;14.73;95542.97;10363841;28;98216;-72
2022/06/20 16:59:07;;;;;;;8.02;2.67;;;;;;;43.82;14.21;95547.41;10365277;28;98665;-72
2022/06/20 17:04:25;;;;;;;7.50;2.47;;;;;;;43.82;14.83;95550.16;10365999;28;97970;-72
2022/06/20 17:09:35;;;;;;;6.88;1.85;;;;;;;43.44;15.11;95560.41;10381557;28;96865;-72
2022/06/20 17:14:50;;;;;;;8.45;2.53;;;;;;;43.19;15.35;95553.84;10369991;28;97207;-72
2022/06/20 17:19:58;;;;;;;7.65;2.40;;;;;;;42.65;15.79;95558.66;10371053;28;97877;-73
2022/06/20 17:25:18;;;;;;;8.07;2.63;;;;;;;42.18;15.96;95553.31;10368432;28;97565;-72
2022/06/20 17:30:35;;;;;;;6.70;2.22;;;;;;;41.87;16.00;95559.88;10369838;28;97235;-72
2022/06/20 17:35:44;;;;;;;7.32;3.03;;;;;;;41.62;16.15;95557.47;10376828;28;97687;-72
2022/06/20 17:40:55;;;;;;;7.30;2.87;;;;;;;41.38;16.70;95560.56;10362775;28;96789;-72
2022/06/20 17:46:11;;;;;;;8.63;2.83;;;;;;;41.24;16.45;95561.88;10364861;28;96925;-72
2022/06/20 17:51:24;;;;;;;9.25;2.90;;;;;;;41.19;16.91;95559.44;10378309;28;97011;-72
2022/06/20 17:56:36;;;;;;;5.35;2.30;;;;;;;41.33;16.58;95558.91;10365681;28;100649;-72
2022/06/20 18:01:46;;;;;;;6.35;2.10;;;;;;;41.61;17.09;95555.91;10358013;28;96923;-72
2022/06/20 18:06:52;;;;;;;6.63;2.40;;;;;;;41.16;17.58;95560.16;10370879;28;97119;-73
2022/06/20 18:11:58;;;;;;;4.93;2.30;;;;;;;40.74;18.39;95555.41;10376055;28;97190;-72
2022/06/20 18:17:08;;;;;;;5.28;2.22;;;;;;;39.79;19.26;95551.66;10351190;28;96943;-72
2022/06/20 18:22:19;;;;;;;5.30;2.47;;;;;;;38.02;20.28;95553.25;10350466;28;98585;-72
2022/06/20 18:27:27;;;;;;;4.47;2.20;;;;;;;36.59;21.68;95552.59;10379007;28;96955;-72
2022/06/20 18:32:36;;;;;;;5.70;2.20;;;;;;;35.80;22.75;95559.59;10368899;28;97139;-72
2022/06/20 18:37:39;;;;;;;7.20;2.42;;;;;;;34.92;23.62;95562.50;10368729;28;96971;-72
2022/06/20 18:42:54;;;;;;;7.43;2.70;;;;;;;34.13;24.08;95556.13;10377499;28;97265;-72
2022/06/20 18:48:15;;;;;;;8.45;2.83;;;;;;;33.54;24.10;95561.00;10372138;28;97375;-72
2022/06/20 18:53:31;;;;;;;6.57;2.78;;;;;;;33.14;24.48;95559.03;10350235;28;97634;-71
2022/06/20 18:59:01;;;;;;;8.38;2.83;;;;;;;32.68;25.15;95571.72;10366901;28;98102;-71
2022/06/20 19:04:25;;;;;;;9.73;2.70;;;;;;;31.85;26.32;95569.09;10365035;28;98864;-73
2022/06/20 19:09:42;;;;;;;4.95;2.50;;;;;;;31.27;27.34;95578.47;10369032;28;97814;-73
2022/06/20 19:15:02;;;;;;;11.35;3.38;;;;;;;30.82;28.14;95580.81;10367973;28;98076;-73
2022/06/20 19:20:37;;;;;;;4.95;2.60;;;;;;;30.25;28.45;95580.75;10370974;28;98040;-73
2022/06/20 19:25:46;;;;;;;9.70;3.08;;;;;;;29.85;29.03;95586.34;10358960;28;97123;-72
2022/06/20 19:30:56;;;;;;;8.38;2.88;;;;;;;29.47;29.76;95590.72;10365199;28;99605;-73
2022/06/20 19:36:10;;;;;;;6.35;2.90;;;;;;;29.13;30.93;95587.00;10374638;28;97040;-73
2022/06/20 19:41:24;;;;;;;6.22;2.92;;;;;;;28.99;31.12;95592.22;10363691;28;97158;-73
2022/06/20 19:46:51;;;;;;;8.85;2.85;;;;;;;28.73;32.06;95596.16;10355809;28;99061;-73
2022/06/20 19:51:56;;;;;;;7.68;2.97;;;;;;;28.60;31.99;95611.00;10346195;28;97811;-75
2022/06/20 19:57:27;;;;;;;10.23;3.20;;;;;;;28.38;32.51;95603.34;10355840;28;97874;-73
2022/06/20 20:02:30;;;;;;;7.38;3.30;;;;;;;28.00;33.59;95597.56;10357647;28;98619;-72
2022/06/20 20:07:42;;;;;;;7.07;3.07;;;;;;;27.93;34.22;95603.22;10361784;28;98546;-72
2022/06/20 20:12:46;;;;;;;7.95;3.28;;;;;;;27.90;34.00;95602.97;10354486;28;98598;-73
2022/06/20 20:18:23;;;;;;;5.55;3.45;;;;;;;27.82;34.03;95607.00;10359520;28;97099;-72
2022/06/20 20:23:30;;;;;;;7.05;3.25;;;;;;;27.69;34.26;95608.38;10367387;28;98678;-73
2022/06/20 20:28:43;;;;;;;4.07;2.78;;;;;;;27.14;35.48;95607.34;10360600;28;97017;-72
2022/06/20 20:34:14;;;;;;;6.45;3.00;;;;;;;26.52;36.65;95607.25;10371927;28;97430;-73
2022/06/20 20:40:00;;;;;;;6.45;2.85;;;;;;;26.19;37.29;95609.28;10358077;28;96988;-72
2022/06/20 20:45:30;;;;;;;5.32;2.90;;;;;;;25.91;37.82;95600.59;10370714;28;99577;-72
2022/06/20 20:50:36;;;;;;;7.03;2.80;;;;;;;25.72;37.29;95605.56;10361400;28;97341;-72
2022/06/20 20:55:44;;;;;;;8.60;3.13;;;;;;;25.75;37.32;95606.91;10381025;28;98497;-72
2022/06/20 21:00:52;;;;;;;4.40;3.35;;;;;;;25.49;37.07;95609.41;10372573;28;97366;-72
2022/06/20 21:05:58;;;;;;;7.13;3.17;;;;;;;25.29;37.39;95598.59;10371026;28;97254;-72
2022/06/20 21:11:06;;;;;;;7.35;2.97;;;;;;;25.02;37.42;95591.41;10375474;28;101938;-72
2022/06/20 21:16:18;;;;;;;5.88;2.97;;;;;;;24.98;37.82;95593.78;10369444;28;97126;-72
2022/06/20 21:21:26;;;;;;;11.15;5.00;;;;;;;24.96;37.80;95598.59;10373072;28;98054;-72
2022/06/20 21:26:34;;;;;;;6.15;2.90;;;;;;;24.91;37.43;95600.41;10377346;28;98820;-72
2022/06/20 21:31:40;;;;;;;5.57;2.75;;;;;;;24.79;37.98;95598.69;10373675;28;97240;-72
2022/06/20 21:36:46;;;;;;;6.65;3.33;;;;;;;24.60;38.67;95610.78;10374843;28;97337;-72
2022/06/20 21:41:53;;;;;;;6.18;4.43;;;;;;;24.47;40.00;95617.31;10369268;28;98801;-72
2022/06/20 21:46:56;;;;;;;7.38;3.65;;;;;;;24.39;40.92;95615.09;10376970;28;100670;-72
2022/06/20 21:52:03;;;;;;;8.47;3.00;;;;;;;24.20;41.60;95611.94;10378127;28;97028;-72
2022/06/20 21:57:12;;;;;;;6.47;3.45;;;;;;;23.86;42.28;95625.38;10373818;28;96744;-72
2022/06/20 22:07:45;;;;;;;7.07;3.67;;;;;;;23.23;42.63;95636.16;10372517;28;97072;-72
2022/06/20 22:13:01;;;;;;;6.40;2.92;;;;;;;23.37;42.26;95640.13;10375025;28;97280;-72
2022/06/20 22:18:06;;;;;;;;;;;;;;;23.51;41.23;95627.28;10364402;28;98959;-72
2022/06/20 22:23:16;;;;;;;6.75;3.22;;;;;;;23.67;40.33;95641.66;10369617;28;98567;-72
2022/06/20 22:28:32;;;;;;;6.10;2.95;;;;;;;23.53;41.04;95645.69;10360568;28;97025;-72
2022/06/20 22:33:38;;;;;;;13.07;7.50;;;;;;;23.37;41.56;95650.78;10359618;28;97876;-78
2022/06/20 22:38:51;;;;;;;3.90;2.80;;;;;;;23.27;41.25;95658.66;10361389;28;98011;-77
2022/06/20 22:43:58;;;;;;;9.57;3.47;;;;;;;23.32;41.18;95664.03;10373277;28;97002;-71
2022/06/20 22:49:06;;;;;;;8.20;3.67;;;;;;;23.37;41.20;95674.78;10360248;28;97098;-71
2022/06/20 22:54:14;;;;;;;8.30;2.97;;;;;;;23.23;41.40;95680.66;10368243;28;96837;-72
2022/06/20 22:59:22;;;;;;;7.07;3.47;;;;;;;23.06;41.73;95683.31;10360254;28;98822;-71
2022/06/20 23:04:31;;;;;;;5.57;3.05;;;;;;;22.97;41.99;95683.69;10366764;28;97247;-71
2022/06/20 23:09:34;;;;;;;5.47;3.00;;;;;;;22.85;41.72;95677.59;10370358;28;97916;-71
2022/06/20 23:14:39;;;;;;;7.47;3.13;;;;;;;22.86;41.65;95695.22;10364961;28;98294;-71
2022/06/20 23:19:42;;;;;;;8.25;3.15;;;;;;;22.95;41.01;95696.44;10348216;28;96981;-71
2022/06/20 23:24:45;;;;;;;4.75;2.92;;;;;;;22.93;40.45;95685.22;10362209;28;97304;-71
2022/06/20 23:29:49;;;;;;;3.90;2.97;;;;;;;22.86;40.98;95675.78;10362791;28;97241;-71
2022/06/20 23:34:57;;;;;;;9.80;3.88;;;;;;;22.73;42.01;95679.53;10383521;28;98876;-71
2022/06/20 23:40:03;;;;;;;5.25;2.58;;;;;;;22.65;41.95;95663.91;10364188;28;97148;-71
2022/06/20 23:45:10;;;;;;;6.97;2.67;;;;;;;22.52;42.12;95668.47;10374422;28;97678;-71
2022/06/20 23:50:16;;;;;;;6.35;2.80;;;;;;;22.41;42.39;95671.97;10372069;28;96815;-71
2022/06/20 23:55:19;;;;;;;4.65;2.95;;;;;;;22.10;43.23;95660.72;10373845;28;98231;-71
